Terminal Aerodrome Forecast
Issued by NWS

Home | Current Version | Previous Version | Text Only | Print | Product List | Glossary On
Versions: 1 2 3 4 5 6 7 8 9 10 11 12 13 14
000
FTUS45 KRIW 201100
TAFCOD
TAF
KCOD 201120Z 2012/2112 VRB06KT P6SM SCT090 BKN250
     FM201500 01011KT P6SM BKN090
     FM202000 01010KT P6SM FEW100 SCT250
     FM210100 VRB06KT P6SM FEW250
      AMD LTD TO CLD VIS AND WIND=

USA.gov is the U.S. government's official web portal to all federal, state and local government web resources and services.